Time;durP1;ratioP1;P1;durP2;ratioP2;P2;SDS_P1;SDS_P2;PMS_P1;PMS_P2;Temp;Humidity;BMP_temperature;BMP_pressure;BME280_temperature;BME280_humidity;BME280_pressure;Samples;Min_cycle;Max_cycle;Signal;HPM_P1;HPM_P2
2022/07/25 00:02:55;;;;;;;9.70;8.80;;;;;;;25.22;50.43;98520.31;6923771;28;20799;-80
2022/07/25 00:06:17;;;;;;;9.30;8.50;;;;;;;25.44;49.90;98527.91;6923029;28;20230;-80
2022/07/25 00:09:38;;;;;;;9.40;8.60;;;;;;;25.28;50.41;98527.41;6927328;28;20255;-80
2022/07/25 00:13:01;;;;;;;9.60;8.70;;;;;;;24.80;51.25;98490.25;6931586;28;20227;-79
2022/07/25 00:16:23;;;;;;;9.77;8.87;;;;;;;24.98;50.79;98522.44;6924013;28;20206;-80
2022/07/25 00:19:44;;;;;;;9.20;8.47;;;;;;;24.98;50.88;98522.44;6922919;28;20207;-79
2022/07/25 00:23:06;;;;;;;9.57;8.43;;;;;;;25.18;50.62;98515.72;6923115;28;20278;-79
2022/07/25 00:26:27;;;;;;;9.70;8.83;;;;;;;25.63;48.88;98518.38;6923075;28;20256;-79
2022/07/25 00:29:50;;;;;;;10.70;9.70;;;;;;;25.45;49.50;98522.09;6921967;28;20265;-80
2022/07/25 00:33:12;;;;;;;9.53;8.60;;;;;;;25.60;49.24;98515.44;6921571;28;20224;-80
2022/07/25 00:36:34;;;;;;;9.13;8.33;;;;;;;25.42;49.56;98508.88;6922076;28;20184;-80
2022/07/25 00:39:55;;;;;;;9.30;8.50;;;;;;;25.36;49.59;98501.03;6921976;28;20235;-79
2022/07/25 00:43:17;;;;;;;10.50;8.77;;;;;;;25.36;49.82;98523.13;6922731;28;20231;-79
2022/07/25 00:46:40;;;;;;;9.10;8.23;;;;;;;25.50;49.01;98510.94;6921977;28;20730;-79
2022/07/25 00:50:01;;;;;;;9.33;8.60;;;;;;;25.07;50.12;98504.06;6921313;28;20211;-80
2022/07/25 00:53:23;;;;;;;9.47;8.57;;;;;;;24.96;50.42;98515.59;6921624;28;20382;-79
2022/07/25 00:56:45;;;;;;;10.13;9.23;;;;;;;24.93;50.88;98511.50;6921687;28;20254;-79
2022/07/25 01:00:09;;;;;;;9.30;8.43;;;;;;;24.51;51.70;98517.22;6921678;28;20212;-79
2022/07/25 01:03:32;;;;;;;9.10;8.30;;;;;;;24.51;51.85;98511.69;6922258;28;20339;-79
2022/07/25 01:06:55;;;;;;;9.10;8.30;;;;;;;24.80;50.64;98503.22;6921505;28;20225;-79
2022/07/25 01:10:16;;;;;;;9.70;8.77;;;;;;;24.56;50.79;98514.38;6920551;28;20239;-79
2022/07/25 01:13:38;;;;;;;8.77;8.00;;;;;;;24.66;50.43;98483.88;6921995;28;20265;-80
2022/07/25 01:16:59;;;;;;;9.07;8.23;;;;;;;24.98;49.79;98519.69;6921910;28;20251;-80
2022/07/25 01:20:23;;;;;;;9.87;9.07;;;;;;;24.90;50.44;98505.78;6921178;28;20230;-80
2022/07/25 01:23:45;;;;;;;9.30;8.40;;;;;;;25.01;50.21;98505.28;6921468;28;20215;-79
2022/07/25 01:27:06;;;;;;;9.50;8.60;;;;;;;25.18;49.58;98497.22;6921541;28;20322;-80
2022/07/25 01:30:28;;;;;;;9.57;8.77;;;;;;;24.17;51.64;98502.88;6920810;28;20238;-80
2022/07/25 01:33:49;;;;;;;9.93;8.93;;;;;;;23.95;52.71;98502.69;6919547;28;20215;-79
2022/07/25 01:37:12;;;;;;;9.63;8.50;;;;;;;24.47;51.09;98493.28;6921503;28;20290;-79
2022/07/25 01:40:34;;;;;;;9.20;8.37;;;;;;;24.56;50.88;98494.25;6920413;28;20207;-79
2022/07/25 01:43:55;;;;;;;9.10;8.27;;;;;;;24.57;50.68;98495.91;6921006;28;20307;-79
2022/07/25 01:47:17;;;;;;;8.97;8.20;;;;;;;24.67;50.23;98488.25;6921999;28;20253;-80
2022/07/25 01:50:38;;;;;;;8.77;8.07;;;;;;;24.53;50.96;98484.63;6946261;28;20799;-80
2022/07/25 01:54:01;;;;;;;9.20;8.40;;;;;;;24.42;50.80;98485.94;6921637;28;20303;-79
2022/07/25 01:57:23;;;;;;;9.70;8.37;;;;;;;24.49;51.12;98477.28;6920781;28;20278;-79
2022/07/25 02:00:44;;;;;;;9.60;8.43;;;;;;;24.55;50.50;98481.59;6920504;28;20752;-80
2022/07/25 02:04:06;;;;;;;8.67;7.90;;;;;;;24.32;51.33;98464.06;6920886;28;20213;-79
2022/07/25 02:07:27;;;;;;;9.53;8.67;;;;;;;23.86;52.04;98430.09;6920565;28;20323;-80
2022/07/25 02:10:50;;;;;;;9.10;8.10;;;;;;;24.11;51.92;98471.03;6920418;28;20311;-80
2022/07/25 02:14:12;;;;;;;9.20;8.40;;;;;;;24.17;51.60;98453.31;6920958;28;20215;-79
2022/07/25 02:17:33;;;;;;;9.70;8.80;;;;;;;24.19;51.35;98462.06;6929994;28;20211;-80
2022/07/25 02:20:55;;;;;;;9.60;8.40;;;;;;;24.15;51.70;98460.22;6922895;28;20236;-79
2022/07/25 02:24:16;;;;;;;9.47;8.67;;;;;;;24.22;51.12;98461.47;6920780;28;20748;-80
2022/07/25 02:27:39;;;;;;;9.10;8.30;;;;;;;23.71;52.66;98457.84;6920989;28;20382;-80
2022/07/25 02:31:01;;;;;;;9.23;8.27;;;;;;;24.09;51.57;98454.00;6918741;28;20225;-80
2022/07/25 02:34:22;;;;;;;9.17;8.37;;;;;;;23.76;51.51;98391.69;6920296;28;20744;-80
2022/07/25 02:37:44;;;;;;;9.27;8.07;;;;;;;23.99;51.66;98458.81;6919688;28;20297;-79
2022/07/25 02:41:06;;;;;;;9.83;8.97;;;;;;;24.22;51.14;98455.97;6920722;28;20261;-80
2022/07/25 02:44:29;;;;;;;9.67;8.87;;;;;;;24.13;51.56;98446.75;6920961;28;20210;-79
2022/07/25 02:47:51;;;;;;;8.87;8.07;;;;;;;24.47;50.44;98440.91;6919696;28;20716;-79
2022/07/25 02:51:12;;;;;;;8.77;7.90;;;;;;;24.07;51.28;98433.38;6919711;28;20692;-79
2022/07/25 02:54:34;;;;;;;9.20;8.40;;;;;;;23.87;51.93;98419.88;6920186;28;20245;-79
2022/07/25 02:57:55;;;;;;;9.93;9.03;;;;;;;23.65;52.45;98431.50;6918817;28;20215;-79
2022/07/25 03:01:18;;;;;;;9.63;8.83;;;;;;;23.84;52.50;98437.81;6919931;28;20259;-79
2022/07/25 03:04:39;;;;;;;9.43;8.63;;;;;;;24.17;50.85;98427.69;6919759;28;20235;-80
2022/07/25 03:08:01;;;;;;;9.60;8.70;;;;;;;24.06;51.39;98431.75;6919013;28;20680;-79
2022/07/25 03:11:23;;;;;;;9.50;8.80;;;;;;;24.14;51.26;98433.81;6920195;28;20232;-80
2022/07/25 03:14:44;;;;;;;9.40;8.50;;;;;;;23.64;52.86;98434.56;6919581;28;20574;-80
2022/07/25 03:18:07;;;;;;;9.40;8.50;;;;;;;23.42;53.09;98417.84;6922391;28;20220;-79
2022/07/25 03:21:29;;;;;;;10.23;9.13;;;;;;;23.46;53.46;98436.22;6931697;28;20221;-80
2022/07/25 03:24:50;;;;;;;9.07;8.27;;;;;;;23.48;53.49;98419.41;6957546;28;20242;-80
2022/07/25 03:28:12;;;;;;;9.30;8.50;;;;;;;23.41;53.43;98436.28;6955354;28;20702;-80
2022/07/25 03:31:34;;;;;;;9.53;8.63;;;;;;;23.71;52.83;98435.03;6956380;28;20231;-79
2022/07/25 03:34:56;;;;;;;8.83;8.13;;;;;;;23.93;51.96;98416.78;6952144;28;20191;-79
2022/07/25 03:38:18;;;;;;;9.23;8.43;;;;;;;23.89;51.60;98399.22;6953673;28;20199;-79
2022/07/25 03:41:40;;;;;;;11.57;8.80;;;;;;;23.56;52.61;98397.53;6954618;28;20227;-79
2022/07/25 03:45:01;;;;;;;9.63;8.63;;;;;;;23.68;52.46;98380.56;6966739;28;20267;-79
2022/07/25 03:48:23;;;;;;;10.57;9.30;;;;;;;23.66;51.83;98385.56;6961766;28;20231;-80
2022/07/25 03:51:46;;;;;;;10.03;9.00;;;;;;;23.35;53.44;98395.34;6953503;28;20235;-80
2022/07/25 03:55:09;;;;;;;10.30;9.30;;;;;;;23.69;52.37;98394.03;6954318;28;20303;-81
2022/07/25 03:58:31;;;;;;;10.13;9.23;;;;;;;23.40;53.99;98398.88;6977421;28;20196;-81
2022/07/25 04:01:52;;;;;;;9.77;8.77;;;;;;;23.82;52.19;98385.00;6956624;28;20235;-79
2022/07/25 04:05:14;;;;;;;9.30;8.47;;;;;;;23.92;51.78;98376.59;6953813;28;20288;-79
2022/07/25 04:08:37;;;;;;;11.40;9.80;;;;;;;23.79;52.58;98390.28;6953108;28;20377;-80
2022/07/25 04:11:58;;;;;;;10.63;9.60;;;;;;;23.59;53.17;98387.88;6954314;28;20597;-79
2022/07/25 04:15:20;;;;;;;10.03;9.00;;;;;;;23.68;52.72;98380.56;6954055;28;20315;-80
2022/07/25 04:18:42;;;;;;;9.77;8.83;;;;;;;23.57;53.22;98348.78;6952616;28;20206;-79
2022/07/25 04:22:03;;;;;;;10.17;8.93;;;;;;;24.00;52.10;98377.81;6956403;28;20231;-80
2022/07/25 04:25:26;;;;;;;10.43;9.47;;;;;;;23.84;52.40;98374.50;6964917;28;20205;-80
2022/07/25 04:28:48;;;;;;;9.70;8.80;;;;;;;23.93;52.45;98385.66;6954956;28;20305;-79
2022/07/25 04:32:10;;;;;;;10.17;9.17;;;;;;;24.17;51.68;98378.09;6953040;28;20237;-79
2022/07/25 04:35:31;;;;;;;10.80;9.80;;;;;;;23.64;53.08;98383.09;6951845;28;20203;-78
2022/07/25 04:38:53;;;;;;;11.20;10.07;;;;;;;23.53;53.55;98369.75;6952617;28;20211;-79
2022/07/25 04:42:16;;;;;;;10.87;9.80;;;;;;;23.65;53.57;98370.16;6953563;28;20341;-79
2022/07/25 04:45:38;;;;;;;10.77;9.60;;;;;;;23.69;53.99;98374.75;6953485;28;20210;-79
2022/07/25 04:48:59;;;;;;;10.43;9.53;;;;;;;23.68;53.63;98375.03;6954295;28;20226;-79
2022/07/25 04:52:21;;;;;;;10.47;9.57;;;;;;;23.56;54.51;98382.94;6954338;28;20239;-80
2022/07/25 04:55:42;;;;;;;10.47;9.53;;;;;;;23.62;54.19;98374.31;6954119;28;20221;-80
2022/07/25 04:59:05;;;;;;;10.83;9.67;;;;;;;24.13;53.53;98377.88;6967060;28;20631;-80
2022/07/25 05:02:27;;;;;;;9.93;9.03;;;;;;;23.92;53.25;98373.03;6953251;28;20233;-80
2022/07/25 05:05:48;;;;;;;10.57;9.33;;;;;;;24.23;53.14;98383.22;6951083;28;20295;-80
2022/07/25 05:09:10;;;;;;;10.70;9.37;;;;;;;24.21;52.38;98340.56;6949285;28;20246;-80
2022/07/25 05:12:32;;;;;;;10.30;9.27;;;;;;;24.78;51.94;98373.88;6950694;28;20671;-80
2022/07/25 05:15:54;;;;;;;11.37;10.33;;;;;;;25.29;50.99;98381.94;6950538;28;20208;-79
2022/07/25 05:19:16;;;;;;;10.30;9.17;;;;;;;25.81;49.94;98375.72;6949533;28;20210;-79
2022/07/25 05:22:38;;;;;;;10.27;9.37;;;;;;;25.64;48.99;98332.25;6945538;28;20222;-80
2022/07/25 05:25:59;;;;;;;9.43;8.63;;;;;;;26.51;48.62;98380.28;6922694;28;20203;-80
2022/07/25 05:29:21;;;;;;;9.93;9.00;;;;;;;26.84;47.25;98367.75;6922141;28;20274;-80
2022/07/25 05:32:44;;;;;;;9.47;8.63;;;;;;;27.18;45.98;98370.63;6920571;28;20314;-80
2022/07/25 05:36:07;;;;;;;11.30;10.20;;;;;;;27.18;45.95;98365.09;6922103;28;20219;-79
2022/07/25 05:39:29;;;;;;;10.07;9.17;;;;;;;27.09;46.14;98349.59;6921542;28;20685;-79
2022/07/25 05:42:50;;;;;;;9.57;8.77;;;;;;;27.53;45.44;98366.78;6921722;28;20265;-81
2022/07/25 05:46:12;;;;;;;9.00;8.20;;;;;;;27.84;46.05;98358.34;6922447;28;20230;-80
2022/07/25 05:49:35;;;;;;;9.97;8.97;;;;;;;27.75;45.34;98325.06;6921968;28;20375;-80
2022/07/25 05:52:56;;;;;;;10.97;9.13;;;;;;;28.14;44.54;98319.28;6922368;28;20713;-80
2022/07/25 05:56:18;;;;;;;9.60;8.70;;;;;;;28.72;43.93;98340.81;6921880;28;20201;-80
2022/07/25 05:59:39;;;;;;;9.93;8.37;;;;;;;29.58;42.67;98322.50;6921074;28;20221;-80
2022/07/25 06:03:02;;;;;;;9.10;8.33;;;;;;;30.32;40.65;98346.31;6921865;28;20229;-80
2022/07/25 06:06:25;;;;;;;8.80;8.00;;;;;;;30.88;38.41;98308.47;6945627;28;20257;-80
2022/07/25 06:09:47;;;;;;;9.50;8.60;;;;;;;31.44;36.89;98327.00;6924356;28;20285;-81
2022/07/25 06:13:09;;;;;;;8.63;7.93;;;;;;;31.75;36.13;98307.66;6921711;28;20249;-81
2022/07/25 06:16:30;;;;;;;8.20;7.47;;;;;;;31.99;36.02;98319.53;6921230;28;20227;-81
2022/07/25 06:19:52;;;;;;;8.97;8.07;;;;;;;31.29;36.38;98331.34;6921125;28;20211;-80
2022/07/25 06:23:15;;;;;;;8.00;7.30;;;;;;;32.32;35.58;98328.41;6924738;28;20223;-81
2022/07/25 06:26:37;;;;;;;7.90;7.27;;;;;;;32.09;34.69;98291.13;6944589;28;20233;-80
2022/07/25 06:29:59;;;;;;;8.20;7.53;;;;;;;32.27;34.76;98302.78;6944690;28;20231;-81
2022/07/25 06:33:20;;;;;;;7.97;7.27;;;;;;;32.60;34.68;98312.41;6927597;28;20230;-79
2022/07/25 06:36:42;;;;;;;8.40;7.70;;;;;;;33.20;33.66;98314.72;6923046;28;20218;-79
2022/07/25 06:40:06;;;;;;;8.70;7.80;;;;;;;33.01;33.64;98285.94;6922012;28;20211;-79
2022/07/25 06:43:28;;;;;;;8.00;7.30;;;;;;;33.44;33.17;98294.13;6922260;28;20259;-79
2022/07/25 06:46:49;;;;;;;7.87;7.23;;;;;;;33.70;32.97;98299.88;6922678;28;20207;-79
2022/07/25 06:50:13;;;;;;;8.43;7.70;;;;;;;33.02;33.60;98293.94;6923178;28;20231;-81
2022/07/25 06:53:34;;;;;;;8.10;7.40;;;;;;;33.53;33.33;98297.50;6928375;28;20353;-79
2022/07/25 06:56:57;;;;;;;8.37;7.67;;;;;;;34.15;32.27;98308.41;6929780;28;20219;-80
2022/07/25 07:00:19;;;;;;;8.63;7.93;;;;;;;33.71;32.13;98287.50;6928877;28;20211;-81
2022/07/25 07:03:40;;;;;;;8.00;7.30;;;;;;;34.28;31.68;98304.28;6928464;28;20243;-80
2022/07/25 07:07:02;;;;;;;8.80;8.07;;;;;;;34.51;31.68;98291.13;6929346;28;20622;-80
2022/07/25 07:10:24;;;;;;;8.93;8.13;;;;;;;34.68;31.02;98293.41;6928476;28;20224;-80
2022/07/25 07:13:47;;;;;;;8.57;7.87;;;;;;;34.13;31.99;98302.41;6929930;28;20204;-80
2022/07/25 07:17:08;;;;;;;8.07;7.47;;;;;;;34.81;31.34;98300.47;6933707;28;20191;-80
2022/07/25 07:20:30;;;;;;;8.13;7.33;;;;;;;35.23;30.84;98299.16;6955866;28;20207;-80
2022/07/25 07:23:52;;;;;;;8.60;7.80;;;;;;;34.73;31.05;98290.31;6955367;28;20286;-80
2022/07/25 07:27:13;;;;;;;8.03;7.23;;;;;;;35.75;29.68;98287.06;6953485;28;20296;-80
2022/07/25 07:30:36;;;;;;;8.33;7.73;;;;;;;35.52;29.74;98298.38;6952010;28;20679;-81
2022/07/25 07:33:58;;;;;;;8.00;7.30;;;;;;;35.71;30.18;98277.78;6953572;28;20206;-81
2022/07/25 07:37:20;;;;;;;7.70;7.10;;;;;;;36.17;28.90;98274.38;6953752;28;20218;-80
2022/07/25 07:40:41;;;;;;;8.27;7.47;;;;;;;35.79;28.89;98276.72;6953785;28;20227;-81
2022/07/25 07:44:03;;;;;;;8.30;7.63;;;;;;;36.40;28.38;98283.44;6953780;28;20243;-80
2022/07/25 07:47:26;;;;;;;7.40;6.70;;;;;;;36.01;28.18;98268.13;6953483;28;20210;-80
2022/07/25 07:50:48;;;;;;;8.30;7.53;;;;;;;36.16;29.03;98269.91;6952913;28;20262;-81
2022/07/25 07:57:49;;;;;;;7.63;7.03;;;;;;;37.29;27.12;98266.09;6951780;28;20203;-80
2022/07/25 08:01:10;;;;;;;8.30;7.60;;;;;;;37.70;25.36;98273.16;6952757;28;20227;-80
2022/07/25 08:04:33;;;;;;;8.17;7.47;;;;;;;36.89;26.40;98240.94;6952428;28;20207;-81
2022/07/25 08:07:55;;;;;;;7.60;7.03;;;;;;;37.88;25.71;98265.59;6952320;28;20698;-81
2022/07/25 08:11:17;;;;;;;7.67;7.07;;;;;;;37.18;26.26;98263.22;6954365;28;20320;-81
2022/07/25 08:14:38;;;;;;;7.87;7.17;;;;;;;38.02;25.68;98262.88;6977800;28;20199;-81
2022/07/25 08:18:00;;;;;;;8.10;7.40;;;;;;;38.01;25.76;98273.31;6952197;28;20347;-81
2022/07/25 08:21:23;;;;;;;7.57;6.90;;;;;;;37.81;25.55;98263.56;6951441;28;20712;-80
2022/07/25 08:24:45;;;;;;;7.90;7.20;;;;;;;38.22;25.69;98264.09;6951181;28;20211;-81
2022/07/25 08:28:06;;;;;;;8.50;7.70;;;;;;;38.44;24.67;98277.84;6951252;28;20215;-80
2022/07/25 08:31:28;;;;;;;7.90;7.10;;;;;;;37.90;25.25;98264.00;6950254;28;20308;-81
2022/07/25 08:34:49;;;;;;;8.37;7.67;;;;;;;38.20;24.82;98272.16;6961623;28;20380;-81
2022/07/25 08:38:12;;;;;;;7.63;7.03;;;;;;;38.73;24.34;98267.41;6962627;28;20311;-80
2022/07/25 08:41:34;;;;;;;8.17;7.50;;;;;;;38.07;25.47;98271.72;6955331;28;20711;-81
2022/07/25 08:44:58;;;;;;;7.97;7.37;;;;;;;38.38;24.72;98262.50;6954183;28;20221;-80
2022/07/25 08:48:21;;;;;;;8.63;7.83;;;;;;;38.85;24.89;98267.81;6952634;28;20338;-79
2022/07/25 08:51:43;;;;;;;8.50;7.70;;;;;;;38.99;23.99;98269.84;6952569;28;20224;-81
2022/07/25 08:55:08;;;;;;;8.53;7.73;;;;;;;38.25;24.71;98257.69;6952261;28;20668;-80
2022/07/25 08:58:30;;;;;;;8.63;7.75;;;;;;;39.29;24.24;98256.09;6952711;28;20333;-80
2022/07/25 09:01:51;;;;;;;7.85;7.13;;;;;;;39.52;23.47;98264.91;6951544;28;20694;-80
2022/07/25 09:05:13;;;;;;;7.72;7.13;;;;;;;39.66;23.45;98270.53;6951568;28;20218;-80
2022/07/25 09:08:34;;;;;;;8.07;7.40;;;;;;;40.28;22.67;98212.13;6951408;28;20203;-80
2022/07/25 09:11:57;;;;;;;8.30;7.55;;;;;;;39.73;22.66;98265.66;6951812;28;20231;-80
2022/07/25 09:15:26;;;;;;;7.68;6.90;;;;;;;39.82;22.94;98251.09;6951467;28;20218;-80
2022/07/25 09:18:48;;;;;;;8.23;7.53;;;;;;;40.01;23.27;98257.06;6951175;28;20218;-81
2022/07/25 09:22:09;;;;;;;7.47;6.75;;;;;;;40.38;22.64;98256.47;6947064;28;20234;-81
2022/07/25 09:25:31;;;;;;;7.93;7.22;;;;;;;40.54;22.06;98234.97;6948213;28;20199;-80
2022/07/25 09:28:55;;;;;;;8.30;7.60;;;;;;;40.95;21.90;98238.66;6949503;28;20246;-80
2022/07/25 09:32:18;;;;;;;8.20;7.50;;;;;;;40.79;21.12;98229.88;6949805;28;20226;-81
2022/07/25 09:35:40;;;;;;;8.80;8.00;;;;;;;39.43;23.13;98239.94;6951436;28;20293;-81
2022/07/25 09:39:04;;;;;;;7.97;7.38;;;;;;;39.33;23.21;98237.16;6951014;28;20222;-81
2022/07/25 09:42:28;;;;;;;7.68;6.97;;;;;;;40.36;22.82;98196.69;6951350;28;20227;-81
2022/07/25 09:45:52;;;;;;;8.05;7.25;;;;;;;40.57;22.62;98224.84;6951212;28;20195;-80
2022/07/25 09:49:13;;;;;;;7.97;7.38;;;;;;;40.15;22.56;98220.25;6950922;28;20231;-80
2022/07/25 09:52:35;;;;;;;8.07;7.43;;;;;;;41.32;21.62;98237.88;6951088;28;20239;-81
2022/07/25 09:55:57;;;;;;;9.75;8.05;;;;;;;41.33;21.01;98216.84;6951003;28;20214;-81
2022/07/25 09:59:18;;;;;;;7.97;7.38;;;;;;;41.25;21.06;98218.16;6951609;28;20242;-81
2022/07/25 10:02:48;;;;;;;9.23;7.95;;;;;;;40.78;22.00;98233.94;6950888;28;20227;-78
2022/07/25 10:06:19;;;;;;;9.30;8.30;;;;;;;39.49;23.57;98234.69;6951811;28;20197;-81
2022/07/25 10:09:42;;;;;;;8.23;7.47;;;;;;;39.85;22.68;98219.22;6950655;28;20261;-81
2022/07/25 10:13:06;;;;;;;7.75;7.05;;;;;;;40.01;23.04;98208.25;6950771;28;20223;-81
2022/07/25 10:16:28;;;;;;;8.70;8.00;;;;;;;38.34;24.07;98213.00;6951073;28;20672;-81
2022/07/25 10:19:51;;;;;;;8.63;7.82;;;;;;;38.25;25.29;98204.97;6955419;28;20206;-80
2022/07/25 10:23:24;;;;;;;8.50;7.80;;;;;;;39.30;23.50;98209.75;6967763;28;20223;-81
2022/07/25 10:26:52;;;;;;;8.57;7.75;;;;;;;40.49;22.33;98197.84;6952245;28;20750;-80
2022/07/25 10:30:21;;;;;;;8.88;8.10;;;;;;;40.79;21.94;98192.34;6954310;28;20230;-81
2022/07/25 10:33:43;;;;;;;8.52;7.82;;;;;;;41.66;20.84;98190.56;6953487;28;20671;-80
2022/07/25 10:37:14;;;;;;;8.00;7.30;;;;;;;39.86;21.89;98182.13;6957535;28;20214;-81
2022/07/25 10:40:38;;;;;;;8.90;8.20;;;;;;;39.63;22.68;98181.00;6965249;28;20266;-80
2022/07/25 10:44:01;;;;;;;8.60;7.80;;;;;;;39.35;22.69;98198.88;6964661;28;20210;-80
2022/07/25 10:47:24;;;;;;;8.05;7.38;;;;;;;39.96;22.18;98181.22;6958462;28;20297;-81
2022/07/25 10:50:57;;;;;;;7.97;7.00;;;;;;;40.15;21.77;98177.09;6955783;28;20341;-80
2022/07/25 10:54:21;;;;;;;7.60;6.95;;;;;;;40.99;20.26;98176.38;6956820;28;20195;-81
2022/07/25 10:57:43;;;;;;;9.13;7.55;;;;;;;41.22;19.93;98163.19;6956335;28;20216;-81
2022/07/25 11:01:05;;;;;;;7.57;6.90;;;;;;;42.02;18.44;98163.38;6954813;28;20223;-81
2022/07/25 11:04:27;;;;;;;7.40;6.80;;;;;;;42.57;18.48;98170.22;6954301;28;20239;-81
2022/07/25 11:07:52;;;;;;;7.88;7.00;;;;;;;42.57;18.83;98164.53;6953898;28;20239;-80
2022/07/25 11:11:15;;;;;;;8.68;7.40;;;;;;;41.30;19.54;98159.03;6954215;28;20270;-80
2022/07/25 11:14:40;;;;;;;7.88;7.18;;;;;;;42.14;18.92;98151.44;6954801;28;20218;-81
2022/07/25 11:18:01;;;;;;;7.75;7.05;;;;;;;40.79;20.02;98147.88;6954152;28;20222;-81
2022/07/25 11:21:23;;;;;;;8.32;7.60;;;;;;;42.07;18.70;98141.00;6954451;28;20269;-81
2022/07/25 11:24:46;;;;;;;7.47;6.85;;;;;;;42.56;18.44;98113.94;6949176;28;20226;-81
2022/07/25 11:28:08;;;;;;;8.82;7.15;;;;;;;42.56;18.56;98131.72;6954710;28;20203;-81
2022/07/25 11:31:31;;;;;;;8.80;7.80;;;;;;;42.27;18.36;98133.44;6954076;28;20226;-80
2022/07/25 11:34:53;;;;;;;9.40;7.03;;;;;;;42.34;18.46;98133.31;6955545;28;20203;-81
2022/07/25 11:38:15;;;;;;;7.95;7.18;;;;;;;40.51;20.18;98111.41;6953209;28;20204;-81
2022/07/25 11:41:38;;;;;;;7.60;6.90;;;;;;;41.28;19.52;98118.25;6955201;28;20316;-81
2022/07/25 11:45:01;;;;;;;7.55;6.63;;;;;;;40.63;20.10;98118.56;6955289;28;20211;-81
2022/07/25 11:48:31;;;;;;;7.40;6.55;;;;;;;42.13;18.70;98113.00;6954362;28;20207;-80
2022/07/25 11:51:52;;;;;;;7.40;6.85;;;;;;;40.69;19.82;98111.22;6955197;28;20241;-81
2022/07/25 11:55:17;;;;;;;7.60;7.00;;;;;;;40.08;20.26;98109.34;6955397;28;20211;-81
2022/07/25 11:58:39;;;;;;;7.10;6.50;;;;;;;38.98;21.53;98105.50;6954807;28;20199;-80
2022/07/25 12:02:01;;;;;;;7.57;6.78;;;;;;;40.82;19.81;98095.31;6956001;28;20219;-81
2022/07/25 12:05:31;;;;;;;7.25;6.53;;;;;;;40.70;20.06;98099.50;6956310;28;20207;-81
2022/07/25 12:08:53;;;;;;;7.25;6.65;;;;;;;41.80;18.51;98080.75;6956430;28;20199;-80
2022/07/25 12:12:15;;;;;;;6.75;6.18;;;;;;;42.75;17.26;98101.81;6955819;28;20321;-79
2022/07/25 12:15:38;;;;;;;8.15;6.47;;;;;;;40.58;19.51;98087.91;6966242;28;20211;-80
2022/07/25 12:19:01;;;;;;;7.72;6.22;;;;;;;40.77;19.61;98082.47;6968605;28;20215;-80
2022/07/25 12:22:23;;;;;;;7.25;6.55;;;;;;;41.66;18.76;98080.94;6958745;28;20231;-80
2022/07/25 12:25:46;;;;;;;6.80;6.20;;;;;;;42.78;17.21;98062.03;6951241;28;20587;-80
2022/07/25 12:29:08;;;;;;;6.47;5.88;;;;;;;41.67;18.19;98070.41;6950948;28;20207;-80
2022/07/25 12:32:29;;;;;;;9.40;6.43;;;;;;;41.00;18.46;98076.97;6949927;28;20231;-79
2022/07/25 12:35:53;;;;;;;6.00;5.47;;;;;;;41.12;18.56;98073.56;6951256;28;20221;-80
2022/07/25 12:39:14;;;;;;;5.97;5.47;;;;;;;40.85;19.20;98052.06;6950895;28;20569;-80
2022/07/25 12:42:36;;;;;;;6.65;6.15;;;;;;;41.29;18.69;98077.38;6950566;28;20242;-79
2022/07/25 12:45:57;;;;;;;6.53;6.03;;;;;;;41.28;18.12;98067.31;6950736;28;20215;-80
2022/07/25 12:49:19;;;;;;;6.45;5.95;;;;;;;41.13;18.07;98066.69;6949883;28;20207;-80
2022/07/25 12:52:43;;;;;;;7.07;6.20;;;;;;;41.64;17.84;98072.06;6950245;28;20301;-80
2022/07/25 12:56:05;;;;;;;6.00;5.47;;;;;;;42.14;17.19;98058.72;6950857;28;20211;-79
2022/07/25 12:59:27;;;;;;;6.00;5.50;;;;;;;42.17;17.30;98074.91;6949848;28;20203;-79
2022/07/25 13:02:50;;;;;;;5.60;5.13;;;;;;;42.36;17.00;98047.81;6950124;28;20234;-80
2022/07/25 13:06:11;;;;;;;5.68;5.28;;;;;;;42.31;17.56;98051.97;6949963;28;20261;-80
2022/07/25 13:09:34;;;;;;;6.82;5.50;;;;;;;41.70;17.83;98021.41;6949603;28;20218;-79
2022/07/25 13:12:56;;;;;;;6.82;5.70;;;;;;;40.63;18.77;98054.34;6950401;28;20219;-80
2022/07/25 13:16:17;;;;;;;5.63;5.05;;;;;;;40.17;19.29;98068.13;6950322;28;20211;-80
2022/07/25 13:19:39;;;;;;;6.15;5.60;;;;;;;39.95;19.96;98074.34;6949201;28;20211;-79
2022/07/25 13:23:00;;;;;;;6.47;5.07;;;;;;;39.55;20.75;98067.31;6949766;28;20231;-79
2022/07/25 13:26:23;;;;;;;5.75;5.25;;;;;;;40.65;19.61;98076.53;6925086;28;20214;-80
2022/07/25 13:29:45;;;;;;;6.05;5.32;;;;;;;40.41;19.89;98061.41;6922217;28;20309;-80
2022/07/25 13:33:08;;;;;;;5.85;5.35;;;;;;;40.69;19.39;98075.28;6921977;28;20224;-80
2022/07/25 13:36:31;;;;;;;6.00;5.50;;;;;;;40.61;19.33;98084.28;6922194;28;20188;-79
2022/07/25 13:39:52;;;;;;;6.30;5.70;;;;;;;39.91;20.41;98071.53;6921259;28;20299;-78
2022/07/25 13:43:15;;;;;;;5.70;5.20;;;;;;;40.12;19.88;98074.22;6921449;28;20378;-78
2022/07/25 13:46:37;;;;;;;7.95;6.05;;;;;;;39.98;19.90;98070.66;6921292;28;20227;-78
2022/07/25 13:49:58;;;;;;;5.50;5.10;;;;;;;40.53;19.22;98066.53;6920316;28;20277;-79
2022/07/25 13:53:20;;;;;;;5.78;5.28;;;;;;;40.60;19.50;98066.50;6921115;28;20235;-79
2022/07/25 13:56:42;;;;;;;6.10;5.50;;;;;;;40.82;19.12;98050.06;6920453;28;20253;-78
2022/07/25 14:00:06;;;;;;;6.00;5.50;;;;;;;40.55;19.31;98066.16;6919608;28;20219;-79
2022/07/25 14:03:28;;;;;;;7.07;5.70;;;;;;;40.70;19.68;98061.94;6920496;28;20219;-78
2022/07/25 14:06:51;;;;;;;6.70;5.60;;;;;;;40.32;20.31;98041.31;6921230;28;20285;-79
2022/07/25 14:10:13;;;;;;;7.70;6.00;;;;;;;40.20;20.55;98050.31;6920558;28;20237;-78
2022/07/25 14:13:34;;;;;;;8.82;5.88;;;;;;;39.93;20.12;98032.41;6920780;28;20224;-78
2022/07/25 14:16:57;;;;;;;6.47;5.97;;;;;;;39.81;20.62;98038.53;6920450;28;20222;-79
2022/07/25 14:20:19;;;;;;;6.40;5.80;;;;;;;39.72;20.72;98049.50;6920000;28;20215;-78
2022/07/25 14:23:41;;;;;;;8.48;6.00;;;;;;;39.62;21.03;98046.72;6920574;28;20266;-78
2022/07/25 14:27:02;;;;;;;6.82;5.88;;;;;;;40.08;21.24;98047.19;6920595;28;20255;-78
2022/07/25 14:30:24;;;;;;;7.28;6.35;;;;;;;39.81;21.10;98037.72;6919798;28;20227;-78
2022/07/25 14:33:47;;;;;;;6.63;6.03;;;;;;;40.05;22.99;98057.31;6919398;28;20294;-78
2022/07/25 14:37:08;;;;;;;8.35;6.20;;;;;;;39.19;26.17;98026.41;6920652;28;20215;-79
2022/07/25 14:40:30;;;;;;;7.00;6.30;;;;;;;39.38;26.98;98068.22;6919391;28;20568;-78
2022/07/25 14:43:52;;;;;;;9.43;6.40;;;;;;;39.63;26.19;98066.09;6919930;28;20729;-78
2022/07/25 14:47:13;;;;;;;7.15;6.32;;;;;;;38.45;24.37;98067.34;6920032;28;20498;-78
2022/07/25 14:50:36;;;;;;;7.60;6.22;;;;;;;38.86;23.92;98068.47;6920307;28;20349;-78
2022/07/25 14:53:57;;;;;;;7.35;5.82;;;;;;;39.19;22.58;98054.63;6920651;28;20234;-78
2022/07/25 14:57:19;;;;;;;7.28;6.60;;;;;;;39.64;22.30;98053.56;6920652;28;20699;-79
2022/07/25 15:00:42;;;;;;;6.63;6.13;;;;;;;39.62;21.27;98072.13;6920216;28;20243;-78
2022/07/25 15:04:04;;;;;;;6.45;5.93;;;;;;;39.45;21.05;98067.41;6921316;28;20223;-78
2022/07/25 15:07:27;;;;;;;6.70;5.95;;;;;;;39.71;20.85;98053.53;6920924;28;20271;-78
2022/07/25 15:10:48;;;;;;;6.68;6.00;;;;;;;39.72;21.47;98049.50;6919715;28;20231;-79
2022/07/25 15:14:10;;;;;;;7.15;6.55;;;;;;;39.27;21.55;98046.91;6924999;28;20321;-78
2022/07/25 15:17:32;;;;;;;7.10;6.43;;;;;;;39.29;21.61;98059.44;6924726;28;20254;-79
2022/07/25 15:20:54;;;;;;;7.00;6.40;;;;;;;38.95;22.14;98038.63;6925072;28;20259;-79
2022/07/25 15:24:16;;;;;;;7.65;6.50;;;;;;;38.64;22.65;98058.44;6924264;28;20200;-79
2022/07/25 15:27:38;;;;;;;6.68;6.18;;;;;;;38.94;21.74;98047.47;6948459;28;20344;-79
2022/07/25 15:31:00;;;;;;;6.97;6.28;;;;;;;39.25;21.83;98032.44;6951215;28;20258;-78
2022/07/25 15:34:21;;;;;;;7.13;6.43;;;;;;;38.82;22.68;98050.72;6952504;28;20272;-78
2022/07/25 15:37:43;;;;;;;6.63;6.03;;;;;;;38.42;22.45;98042.81;6951995;28;20230;-78
2022/07/25 15:41:09;;;;;;;6.28;5.68;;;;;;;38.93;22.12;98043.88;6952491;28;20242;-78
2022/07/25 15:44:31;;;;;;;6.07;5.57;;;;;;;38.74;22.11;98047.16;6952804;28;20191;-78
2022/07/25 15:47:55;;;;;;;8.80;6.47;;;;;;;38.18;23.38;98063.31;6952272;28;20296;-79
2022/07/25 15:51:16;;;;;;;7.50;6.07;;;;;;;37.91;24.54;98053.66;6953035;28;20231;-79
2022/07/25 15:54:38;;;;;;;6.97;5.87;;;;;;;37.35;25.18;98079.69;6954224;28;20559;-79